TimeEDT,TemperatureF,Dew PointF,Humidity,Sea Level PressureIn,VisibilityMPH,Wind Direction,Wind SpeedMPH,Gust SpeedMPH,PrecipitationIn,Events,Conditions,WindDirDegrees,DateUTC
12:53 AM,66.9,64.9,93,29.89,9.0,Calm,Calm,-,0.01,,Overcast,0,2013-05-23 04:53:00
1:53 AM,66.9,64.0,90,29.88,10.0,SSW,4.6,-,0.00,,Scattered Clouds,200,2013-05-23 05:53:00
2:53 AM,66.0,64.0,93,29.89,7.0,South,9.2,-,N/A,,Partly Cloudy,190,2013-05-23 06:53:00
3:11 AM,66.2,64.4,94,29.91,7.0,South,6.9,-,N/A,,Mostly Cloudy,190,2013-05-23 07:11:00
3:40 AM,66.2,64.4,94,29.91,9.0,South,6.9,-,N/A,,Mostly Cloudy,190,2013-05-23 07:40:00
3:53 AM,66.0,64.0,93,29.89,9.0,South,8.1,-,N/A,,Mostly Cloudy,190,2013-05-23 07:53:00
4:53 AM,66.0,64.0,93,29.88,8.0,SSW,4.6,-,0.00,Rain,Light Rain,210,2013-05-23 08:53:00
5:53 AM,64.9,64.0,97,29.87,8.0,South,4.6,-,0.01,,Partly Cloudy,180,2013-05-23 09:53:00
6:53 AM,64.9,64.0,97,29.88,8.0,SSW,3.5,-,N/A,,Scattered Clouds,210,2013-05-23 10:53:00
7:53 AM,68.0,64.9,90,29.88,10.0,South,5.8,-,N/A,,Scattered Clouds,190,2013-05-23 11:53:00
8:20 AM,68.0,64.4,88,29.90,10.0,South,6.9,-,N/A,,Partly Cloudy,190,2013-05-23 12:20:00
8:53 AM,69.1,64.9,87,29.89,10.0,SSW,10.4,-,N/A,,Clear,200,2013-05-23 12:53:00
9:53 AM,69.1,64.0,84,29.89,10.0,SSW,8.1,-,N/A,,Overcast,200,2013-05-23 13:53:00
10:53 AM,72.0,64.9,78,29.89,10.0,South,9.2,-,N/A,,Mostly Cloudy,190,2013-05-23 14:53:00
11:53 AM,73.0,64.9,76,29.89,10.0,South,8.1,-,N/A,,Mostly Cloudy,170,2013-05-23 15:53:00
12:53 PM,75.0,64.9,71,29.87,10.0,South,11.5,-,N/A,,Scattered Clouds,170,2013-05-23 16:53:00
1:04 PM,75.2,64.4,69,29.88,10.0,South,10.4,-,N/A,,Mostly Cloudy,170,2013-05-23 17:04:00
1:11 PM,77.0,66.2,69,29.88,10.0,SSE,11.5,-,N/A,,Mostly Cloudy,150,2013-05-23 17:11:00
1:53 PM,78.1,66.0,66,29.84,10.0,South,9.2,-,N/A,,Mostly Cloudy,170,2013-05-23 17:53:00
2:53 PM,75.9,64.0,67,29.81,10.0,SSE,8.1,-,N/A,,Overcast,160,2013-05-23 18:53:00
3:36 PM,73.4,66.2,78,29.83,2.0,SW,6.9,-,0.08,Rain,Light Rain,220,2013-05-23 19:36:00
3:38 PM,73.4,66.2,78,29.83,1.5,SW,8.1,-,0.11,Rain-Thunderstorm,Thunderstorms and Rain,230,2013-05-23 19:38:00
3:44 PM,71.6,66.2,83,29.83,0.8,NW,16.1,21.9,0.18,Rain-Thunderstorm,Thunderstorms and Rain,310,2013-05-23 19:44:00
3:53 PM,66.9,61.0,81,29.83,0.2,Variable,6.9,38.0,1.02,Rain-Thunderstorm,Thunderstorms and Rain,0,2013-05-23 19:53:00
4:07 PM,69.8,64.4,83,29.82,3.0,South,5.8,-,0.13,Rain,Rain,180,2013-05-23 20:07:00
4:53 PM,72.0,66.9,84,29.79,6.0,SSE,3.5,-,0.13,Rain,Rain,150,2013-05-23 20:53:00
5:53 PM,72.0,66.0,81,29.78,10.0,South,5.8,-,0.00,Rain,Rain,190,2013-05-23 21:53:00
6:53 PM,72.0,66.9,84,29.76,10.0,Calm,Calm,-,0.00,Rain,Rain,0,2013-05-23 22:53:00
7:53 PM,71.1,66.0,84,29.75,10.0,Calm,Calm,-,0.00,Rain,Rain,0,2013-05-23 23:53:00
8:53 PM,69.1,66.0,90,29.77,10.0,Calm,Calm,-,0.00,Rain,Rain,0,2013-05-24 00:53:00
9:53 PM,64.9,59.0,81,29.83,10.0,NW,5.8,18.4,0.00,Rain,Rain,320,2013-05-24 01:53:00
10:53 PM,-9999,-9999,N/A,29.84,-9999.0,North,-9999.0,-,0.04,Rain,Rain,0,2013-05-24 02:53:00
11:53 PM,-9999,-9999,N/A,29.81,-9999.0,North,-9999.0,-,N/A,,Unknown,0,2013-05-24 03:53:00